sensor_id;sensor_type;location;lat;lon;timestamp;P1;durP1;ratioP1;P2;durP2;ratioP2
72464;SDS011;60471;52.150;4.508;2023-04-01T00:01:05;119.82;;;17.60;;
72464;SDS011;60471;52.150;4.508;2023-04-01T00:03:32;108.32;;;18.48;;
72464;SDS011;60471;52.150;4.508;2023-04-01T00:05:59;102.35;;;17.23;;
72464;SDS011;60471;52.150;4.508;2023-04-01T00:08:26;93.47;;;16.73;;
72464;SDS011;60471;52.150;4.508;2023-04-01T00:10:53;106.35;;;17.13;;
72464;SDS011;60471;52.150;4.508;2023-04-01T00:13:20;92.22;;;16.13;;
72464;SDS011;60471;52.150;4.508;2023-04-01T00:15:47;103.53;;;16.45;;
72464;SDS011;60471;52.150;4.508;2023-04-01T00:18:13;142.25;;;18.77;;
72464;SDS011;60471;52.150;4.508;2023-04-01T00:20:43;152.85;;;18.27;;
72464;SDS011;60471;52.150;4.508;2023-04-01T00:23:12;80.38;;;15.95;;
72464;SDS011;60471;52.150;4.508;2023-04-01T00:25:38;139.25;;;17.15;;
72464;SDS011;60471;52.150;4.508;2023-04-01T00:28:04;94.55;;;15.40;;
72464;SDS011;60471;52.150;4.508;2023-04-01T00:30:31;85.30;;;14.70;;
72464;SDS011;60471;52.150;4.508;2023-04-01T00:32:57;62.08;;;12.52;;
72464;SDS011;60471;52.150;4.508;2023-04-01T00:35:24;100.78;;;13.77;;
72464;SDS011;60471;52.150;4.508;2023-04-01T00:37:50;100.22;;;13.43;;
72464;SDS011;60471;52.150;4.508;2023-04-01T00:43:09;72.82;;;12.70;;
72464;SDS011;60471;52.150;4.508;2023-04-01T00:45:46;73.85;;;12.82;;
72464;SDS011;60471;52.150;4.508;2023-04-01T00:48:16;69.05;;;11.20;;
72464;SDS011;60471;52.150;4.508;2023-04-01T00:50:52;69.03;;;12.60;;
72464;SDS011;60471;52.150;4.508;2023-04-01T00:53:26;62.30;;;11.70;;
72464;SDS011;60471;52.150;4.508;2023-04-01T00:55:57;62.53;;;12.02;;
72464;SDS011;60471;52.150;4.508;2023-04-01T00:58:31;56.00;;;11.43;;
72464;SDS011;60471;52.150;4.508;2023-04-01T01:01:04;50.10;;;9.75;;
72464;SDS011;60471;52.150;4.508;2023-04-01T01:03:31;49.25;;;11.85;;
72464;SDS011;60471;52.150;4.508;2023-04-01T01:06:02;43.17;;;11.55;;
72464;SDS011;60471;52.150;4.508;2023-04-01T01:08:52;46.88;;;10.07;;
72464;SDS011;60471;52.150;4.508;2023-04-01T01:11:43;50.38;;;10.38;;
72464;SDS011;60471;52.150;4.508;2023-04-01T01:14:42;42.50;;;10.80;;
72464;SDS011;60471;52.150;4.508;2023-04-01T01:37:30;49.53;;;11.18;;
72464;SDS011;60471;52.150;4.508;2023-04-01T01:39:59;51.45;;;11.15;;
72464;SDS011;60471;52.150;4.508;2023-04-01T01:42:31;37.83;;;9.77;;
72464;SDS011;60471;52.150;4.508;2023-04-01T01:45:03;36.83;;;10.10;;
72464;SDS011;60471;52.150;4.508;2023-04-01T01:47:33;41.50;;;10.70;;
72464;SDS011;60471;52.150;4.508;2023-04-01T01:50:02;56.17;;;13.20;;
72464;SDS011;60471;52.150;4.508;2023-04-01T01:52:31;66.82;;;13.48;;
72464;SDS011;60471;52.150;4.508;2023-04-01T01:54:57;54.85;;;10.15;;
72464;SDS011;60471;52.150;4.508;2023-04-01T01:57:25;48.53;;;11.52;;
72464;SDS011;60471;52.150;4.508;2023-04-01T02:00:06;42.10;;;11.77;;
72464;SDS011;60471;52.150;4.508;2023-04-01T02:02:40;47.50;;;9.60;;
72464;SDS011;60471;52.150;4.508;2023-04-01T02:05:21;40.92;;;10.07;;
72464;SDS011;60471;52.150;4.508;2023-04-01T02:07:53;36.65;;;10.35;;
72464;SDS011;60471;52.150;4.508;2023-04-01T02:10:30;37.08;;;10.32;;
72464;SDS011;60471;52.150;4.508;2023-04-01T02:13:01;36.65;;;9.73;;
72464;SDS011;60471;52.150;4.508;2023-04-01T02:15:40;41.90;;;10.95;;
72464;SDS011;60471;52.150;4.508;2023-04-01T02:18:13;49.53;;;12.15;;
72464;SDS011;60471;52.150;4.508;2023-04-01T02:20:41;47.13;;;12.00;;
72464;SDS011;60471;52.150;4.508;2023-04-01T02:23:10;47.03;;;13.60;;
72464;SDS011;60471;52.150;4.508;2023-04-01T02:25:37;57.22;;;14.70;;
72464;SDS011;60471;52.150;4.508;2023-04-01T02:28:07;61.97;;;16.17;;
72464;SDS011;60471;52.150;4.508;2023-04-01T02:30:38;60.38;;;15.75;;
72464;SDS011;60471;52.150;4.508;2023-04-01T02:33:08;57.70;;;16.08;;
72464;SDS011;60471;52.150;4.508;2023-04-01T02:35:37;65.72;;;17.65;;
72464;SDS011;60471;52.150;4.508;2023-04-01T02:38:04;69.88;;;19.35;;
72464;SDS011;60471;52.150;4.508;2023-04-01T02:40:40;55.97;;;17.67;;
72464;SDS011;60471;52.150;4.508;2023-04-01T02:43:09;65.57;;;18.67;;
72464;SDS011;60471;52.150;4.508;2023-04-01T02:45:35;49.58;;;17.65;;
72464;SDS011;60471;52.150;4.508;2023-04-01T02:48:01;49.90;;;18.35;;
72464;SDS011;60471;52.150;4.508;2023-04-01T02:50:28;46.83;;;17.67;;
72464;SDS011;60471;52.150;4.508;2023-04-01T02:52:54;50.10;;;18.02;;
72464;SDS011;60471;52.150;4.508;2023-04-01T02:55:21;42.63;;;16.52;;
72464;SDS011;60471;52.150;4.508;2023-04-01T02:57:48;43.90;;;17.20;;
72464;SDS011;60471;52.150;4.508;2023-04-01T03:00:14;45.75;;;16.73;;
72464;SDS011;60471;52.150;4.508;2023-04-01T03:02:41;45.90;;;15.50;;
72464;SDS011;60471;52.150;4.508;2023-04-01T03:05:07;35.13;;;13.50;;
72464;SDS011;60471;52.150;4.508;2023-04-01T03:07:34;29.38;;;13.15;;
72464;SDS011;60471;52.150;4.508;2023-04-01T03:10:00;38.22;;;13.93;;
72464;SDS011;60471;52.150;4.508;2023-04-01T03:12:26;40.42;;;14.43;;
72464;SDS011;60471;52.150;4.508;2023-04-01T03:14:52;42.72;;;16.48;;
72464;SDS011;60471;52.150;4.508;2023-04-01T03:17:19;40.78;;;16.27;;
72464;SDS011;60471;52.150;4.508;2023-04-01T03:19:45;39.63;;;16.40;;
72464;SDS011;60471;52.150;4.508;2023-04-01T03:22:11;40.70;;;16.90;;
72464;SDS011;60471;52.150;4.508;2023-04-01T03:24:37;45.15;;;16.40;;
72464;SDS011;60471;52.150;4.508;2023-04-01T03:27:04;38.70;;;15.57;;
72464;SDS011;60471;52.150;4.508;2023-04-01T03:29:30;35.78;;;13.25;;
72464;SDS011;60471;52.150;4.508;2023-04-01T03:31:56;35.78;;;13.00;;
72464;SDS011;60471;52.150;4.508;2023-04-01T03:34:23;34.47;;;13.75;;
72464;SDS011;60471;52.150;4.508;2023-04-01T03:36:51;32.75;;;13.40;;
72464;SDS011;60471;52.150;4.508;2023-04-01T03:39:17;34.15;;;14.27;;
72464;SDS011;60471;52.150;4.508;2023-04-01T03:41:44;44.58;;;16.63;;
72464;SDS011;60471;52.150;4.508;2023-04-01T03:44:11;36.80;;;16.27;;
72464;SDS011;60471;52.150;4.508;2023-04-01T03:46:38;39.95;;;15.77;;
72464;SDS011;60471;52.150;4.508;2023-04-01T03:49:08;40.35;;;17.95;;
72464;SDS011;60471;52.150;4.508;2023-04-01T03:54:04;50.88;;;19.40;;
72464;SDS011;60471;52.150;4.508;2023-04-01T03:56:31;56.65;;;20.80;;
72464;SDS011;60471;52.150;4.508;2023-04-01T03:58:58;53.80;;;19.48;;
72464;SDS011;60471;52.150;4.508;2023-04-01T04:01:29;49.70;;;18.67;;
72464;SDS011;60471;52.150;4.508;2023-04-01T04:03:55;43.08;;;18.02;;
72464;SDS011;60471;52.150;4.508;2023-04-01T04:06:22;49.88;;;18.98;;
72464;SDS011;60471;52.150;4.508;2023-04-01T04:08:50;50.13;;;19.95;;
72464;SDS011;60471;52.150;4.508;2023-04-01T04:11:16;41.22;;;18.50;;
72464;SDS011;60471;52.150;4.508;2023-04-01T04:13:45;46.10;;;18.92;;
72464;SDS011;60471;52.150;4.508;2023-04-01T04:16:13;40.45;;;17.90;;
72464;SDS011;60471;52.150;4.508;2023-04-01T04:18:41;41.45;;;18.80;;
72464;SDS011;60471;52.150;4.508;2023-04-01T04:21:11;44.60;;;19.20;;
72464;SDS011;60471;52.150;4.508;2023-04-01T04:23:40;46.43;;;18.63;;
72464;SDS011;60471;52.150;4.508;2023-04-01T04:26:07;45.45;;;19.58;;
72464;SDS011;60471;52.150;4.508;2023-04-01T04:28:37;40.45;;;18.38;;
72464;SDS011;60471;52.150;4.508;2023-04-01T04:31:04;50.60;;;20.60;;
72464;SDS011;60471;52.150;4.508;2023-04-01T04:33:32;51.35;;;21.38;;
72464;SDS011;60471;52.150;4.508;2023-04-01T04:36:00;54.40;;;20.42;;
72464;SDS011;60471;52.150;4.508;2023-04-01T04:38:27;54.97;;;19.80;;
72464;SDS011;60471;52.150;4.508;2023-04-01T04:40:54;44.53;;;18.75;;
72464;SDS011;60471;52.150;4.508;2023-04-01T04:43:21;44.40;;;19.35;;
72464;SDS011;60471;52.150;4.508;2023-04-01T04:45:48;54.25;;;20.63;;
72464;SDS011;60471;52.150;4.508;2023-04-01T04:48:15;44.47;;;18.33;;
72464;SDS011;60471;52.150;4.508;2023-04-01T04:50:44;40.10;;;17.35;;
72464;SDS011;60471;52.150;4.508;2023-04-01T04:53:13;48.97;;;18.33;;
72464;SDS011;60471;52.150;4.508;2023-04-01T04:55:44;45.83;;;18.08;;
72464;SDS011;60471;52.150;4.508;2023-04-01T04:58:15;42.38;;;17.70;;
72464;SDS011;60471;52.150;4.508;2023-04-01T05:00:42;45.50;;;17.65;;
72464;SDS011;60471;52.150;4.508;2023-04-01T05:03:09;45.70;;;19.15;;
72464;SDS011;60471;52.150;4.508;2023-04-01T05:05:36;49.85;;;18.00;;
72464;SDS011;60471;52.150;4.508;2023-04-01T05:08:04;48.70;;;19.05;;
72464;SDS011;60471;52.150;4.508;2023-04-01T05:10:30;48.83;;;18.98;;
72464;SDS011;60471;52.150;4.508;2023-04-01T05:12:57;52.15;;;19.52;;
72464;SDS011;60471;52.150;4.508;2023-04-01T05:15:24;53.83;;;18.23;;
72464;SDS011;60471;52.150;4.508;2023-04-01T05:17:50;55.95;;;18.80;;
72464;SDS011;60471;52.150;4.508;2023-04-01T05:20:16;59.20;;;19.83;;
72464;SDS011;60471;52.150;4.508;2023-04-01T05:22:43;50.97;;;18.48;;
72464;SDS011;60471;52.150;4.508;2023-04-01T05:25:09;46.53;;;18.05;;
72464;SDS011;60471;52.150;4.508;2023-04-01T05:27:35;55.97;;;19.60;;
72464;SDS011;60471;52.150;4.508;2023-04-01T05:30:02;52.20;;;20.95;;
72464;SDS011;60471;52.150;4.508;2023-04-01T05:32:30;54.25;;;19.35;;
72464;SDS011;60471;52.150;4.508;2023-04-01T05:34:57;44.97;;;17.48;;
72464;SDS011;60471;52.150;4.508;2023-04-01T05:37:23;49.58;;;17.40;;
72464;SDS011;60471;52.150;4.508;2023-04-01T05:39:51;54.15;;;17.25;;
72464;SDS011;60471;52.150;4.508;2023-04-01T05:42:17;42.22;;;15.82;;
72464;SDS011;60471;52.150;4.508;2023-04-01T05:44:44;46.72;;;17.10;;
72464;SDS011;60471;52.150;4.508;2023-04-01T05:47:10;41.72;;;16.83;;
72464;SDS011;60471;52.150;4.508;2023-04-01T05:49:36;46.65;;;20.55;;
72464;SDS011;60471;52.150;4.508;2023-04-01T05:52:02;55.97;;;20.40;;
72464;SDS011;60471;52.150;4.508;2023-04-01T05:54:28;42.90;;;17.83;;
72464;SDS011;60471;52.150;4.508;2023-04-01T05:56:55;47.78;;;18.23;;
72464;SDS011;60471;52.150;4.508;2023-04-01T05:59:21;49.00;;;17.65;;
72464;SDS011;60471;52.150;4.508;2023-04-01T06:01:47;42.40;;;16.98;;
72464;SDS011;60471;52.150;4.508;2023-04-01T06:04:14;42.33;;;14.88;;
72464;SDS011;60471;52.150;4.508;2023-04-01T06:06:43;54.65;;;23.48;;
72464;SDS011;60471;52.150;4.508;2023-04-01T06:09:17;60.17;;;24.85;;
72464;SDS011;60471;52.150;4.508;2023-04-01T06:12:00;44.28;;;17.17;;
72464;SDS011;60471;52.150;4.508;2023-04-01T06:17:29;47.25;;;16.60;;
72464;SDS011;60471;52.150;4.508;2023-04-01T06:27:16;44.65;;;13.10;;
72464;SDS011;60471;52.150;4.508;2023-04-01T06:30:07;41.50;;;16.42;;
72464;SDS011;60471;52.150;4.508;2023-04-01T06:32:59;40.40;;;16.75;;
72464;SDS011;60471;52.150;4.508;2023-04-01T06:35:36;53.08;;;23.50;;
72464;SDS011;60471;52.150;4.508;2023-04-01T06:38:25;38.85;;;15.60;;
72464;SDS011;60471;52.150;4.508;2023-04-01T06:50:24;42.13;;;17.35;;
72464;SDS011;60471;52.150;4.508;2023-04-01T06:53:18;44.53;;;19.73;;
72464;SDS011;60471;52.150;4.508;2023-04-01T06:56:12;49.70;;;22.70;;
72464;SDS011;60471;52.150;4.508;2023-04-01T07:01:38;37.17;;;14.52;;
72464;SDS011;60471;52.150;4.508;2023-04-01T07:04:16;33.70;;;14.55;;
72464;SDS011;60471;52.150;4.508;2023-04-01T07:06:52;43.30;;;14.60;;
72464;SDS011;60471;52.150;4.508;2023-04-01T07:09:28;40.83;;;14.95;;
72464;SDS011;60471;52.150;4.508;2023-04-01T07:12:06;39.25;;;14.63;;
72464;SDS011;60471;52.150;4.508;2023-04-01T07:14:44;37.53;;;15.00;;
72464;SDS011;60471;52.150;4.508;2023-04-01T07:17:16;39.75;;;13.95;;
72464;SDS011;60471;52.150;4.508;2023-04-01T07:19:52;36.30;;;13.63;;
72464;SDS011;60471;52.150;4.508;2023-04-01T07:22:33;37.35;;;14.50;;
72464;SDS011;60471;52.150;4.508;2023-04-01T07:27:52;37.65;;;14.93;;
72464;SDS011;60471;52.150;4.508;2023-04-01T07:30:26;38.50;;;14.57;;
72464;SDS011;60471;52.150;4.508;2023-04-01T07:33:13;35.63;;;14.48;;
72464;SDS011;60471;52.150;4.508;2023-04-01T07:41:37;45.70;;;19.38;;
72464;SDS011;60471;52.150;4.508;2023-04-01T07:44:27;46.63;;;19.42;;
72464;SDS011;60471;52.150;4.508;2023-04-01T07:49:53;35.40;;;15.30;;
72464;SDS011;60471;52.150;4.508;2023-04-01T07:52:53;40.15;;;15.13;;
72464;SDS011;60471;52.150;4.508;2023-04-01T08:07:25;36.30;;;12.80;;
72464;SDS011;60471;52.150;4.508;2023-04-01T08:10:20;39.50;;;14.05;;
72464;SDS011;60471;52.150;4.508;2023-04-01T08:19:09;37.83;;;14.88;;
72464;SDS011;60471;52.150;4.508;2023-04-01T08:22:02;35.85;;;14.77;;
72464;SDS011;60471;52.150;4.508;2023-04-01T08:24:42;36.60;;;15.93;;
72464;SDS011;60471;52.150;4.508;2023-04-01T08:27:25;43.63;;;15.52;;
72464;SDS011;60471;52.150;4.508;2023-04-01T08:30:02;39.47;;;16.02;;
72464;SDS011;60471;52.150;4.508;2023-04-01T08:32:44;47.28;;;19.33;;
72464;SDS011;60471;52.150;4.508;2023-04-01T08:38:12;38.78;;;15.77;;
72464;SDS011;60471;52.150;4.508;2023-04-01T08:40:54;40.22;;;15.15;;
72464;SDS011;60471;52.150;4.508;2023-04-01T08:43:30;42.28;;;14.95;;
72464;SDS011;60471;52.150;4.508;2023-04-01T08:52:12;44.78;;;15.25;;
72464;SDS011;60471;52.150;4.508;2023-04-01T08:55:10;73.70;;;32.72;;
72464;SDS011;60471;52.150;4.508;2023-04-01T08:57:52;49.05;;;16.52;;
72464;SDS011;60471;52.150;4.508;2023-04-01T09:33:06;33.85;;;13.10;;
72464;SDS011;60471;52.150;4.508;2023-04-01T09:35:24;37.60;;;13.52;;
72464;SDS011;60471;52.150;4.508;2023-04-01T09:41:02;34.03;;;13.53;;
72464;SDS011;60471;52.150;4.508;2023-04-01T09:43:55;36.78;;;14.10;;
72464;SDS011;60471;52.150;4.508;2023-04-01T09:52:24;32.95;;;13.65;;
72464;SDS011;60471;52.150;4.508;2023-04-01T09:59:22;104.78;;;54.58;;
72464;SDS011;60471;52.150;4.508;2023-04-01T10:07:56;36.97;;;13.77;;
72464;SDS011;60471;52.150;4.508;2023-04-01T10:19:49;40.72;;;15.13;;
72464;SDS011;60471;52.150;4.508;2023-04-01T10:22:44;32.28;;;11.88;;
72464;SDS011;60471;52.150;4.508;2023-04-01T11:33:52;25.00;;;10.57;;
72464;SDS011;60471;52.150;4.508;2023-04-01T11:36:42;26.58;;;10.98;;
72464;SDS011;60471;52.150;4.508;2023-04-01T11:42:46;27.35;;;11.18;;
72464;SDS011;60471;52.150;4.508;2023-04-01T11:45:23;26.75;;;11.05;;
72464;SDS011;60471;52.150;4.508;2023-04-01T12:11:39;32.13;;;11.52;;
72464;SDS011;60471;52.150;4.508;2023-04-01T12:14:47;34.72;;;11.70;;
72464;SDS011;60471;52.150;4.508;2023-04-01T12:17:36;30.58;;;12.38;;
72464;SDS011;60471;52.150;4.508;2023-04-01T12:22:59;41.72;;;18.27;;
72464;SDS011;60471;52.150;4.508;2023-04-01T12:28:58;33.17;;;10.95;;
72464;SDS011;60471;52.150;4.508;2023-04-01T12:31:42;30.92;;;11.15;;
72464;SDS011;60471;52.150;4.508;2023-04-01T12:37:45;36.10;;;11.30;;
72464;SDS011;60471;52.150;4.508;2023-04-01T12:49:54;25.80;;;8.60;;
72464;SDS011;60471;52.150;4.508;2023-04-01T12:52:47;40.80;;;10.00;;
72464;SDS011;60471;52.150;4.508;2023-04-01T12:55:37;29.20;;;9.05;;
72464;SDS011;60471;52.150;4.508;2023-04-01T13:01:30;30.80;;;7.07;;
72464;SDS011;60471;52.150;4.508;2023-04-01T13:07:22;23.88;;;5.38;;
72464;SDS011;60471;52.150;4.508;2023-04-01T13:16:27;18.60;;;4.95;;
72464;SDS011;60471;52.150;4.508;2023-04-01T13:19:06;21.73;;;4.32;;
72464;SDS011;60471;52.150;4.508;2023-04-01T13:27:29;21.08;;;5.35;;
72464;SDS011;60471;52.150;4.508;2023-04-01T13:34:18;27.52;;;5.50;;
72464;SDS011;60471;52.150;4.508;2023-04-01T13:43:11;49.33;;;19.45;;
72464;SDS011;60471;52.150;4.508;2023-04-01T13:45:53;25.20;;;6.22;;
72464;SDS011;60471;52.150;4.508;2023-04-01T13:48:29;18.33;;;4.82;;
72464;SDS011;60471;52.150;4.508;2023-04-01T14:00:10;15.20;;;4.72;;
72464;SDS011;60471;52.150;4.508;2023-04-01T14:02:55;23.75;;;5.38;;
72464;SDS011;60471;52.150;4.508;2023-04-01T14:06:04;62.47;;;31.80;;
72464;SDS011;60471;52.150;4.508;2023-04-01T14:11:53;23.25;;;7.00;;
72464;SDS011;60471;52.150;4.508;2023-04-01T14:31:44;26.40;;;8.40;;
72464;SDS011;60471;52.150;4.508;2023-04-01T14:44:04;34.25;;;15.30;;
72464;SDS011;60471;52.150;4.508;2023-04-01T14:49:36;24.05;;;6.03;;
72464;SDS011;60471;52.150;4.508;2023-04-01T14:55:10;65.68;;;32.80;;
72464;SDS011;60471;52.150;4.508;2023-04-01T15:03:45;23.35;;;7.65;;
72464;SDS011;60471;52.150;4.508;2023-04-01T15:06:21;27.23;;;7.43;;
72464;SDS011;60471;52.150;4.508;2023-04-01T15:26:09;31.85;;;12.35;;
72464;SDS011;60471;52.150;4.508;2023-04-01T15:29:02;30.92;;;8.85;;
72464;SDS011;60471;52.150;4.508;2023-04-01T15:37:48;17.88;;;9.27;;
72464;SDS011;60471;52.150;4.508;2023-04-01T15:52:18;16.55;;;8.55;;
72464;SDS011;60471;52.150;4.508;2023-04-01T16:13:03;17.73;;;9.52;;
72464;SDS011;60471;52.150;4.508;2023-04-01T16:22:13;16.50;;;8.93;;
72464;SDS011;60471;52.150;4.508;2023-04-01T16:30:50;14.57;;;7.65;;
72464;SDS011;60471;52.150;4.508;2023-04-01T16:33:35;18.00;;;8.05;;
72464;SDS011;60471;52.150;4.508;2023-04-01T16:36:30;16.10;;;8.20;;
72464;SDS011;60471;52.150;4.508;2023-04-01T16:44:48;15.30;;;8.90;;
72464;SDS011;60471;52.150;4.508;2023-04-01T16:47:27;14.40;;;7.75;;
72464;SDS011;60471;52.150;4.508;2023-04-01T16:50:13;24.95;;;13.95;;
72464;SDS011;60471;52.150;4.508;2023-04-01T16:53:02;13.77;;;7.60;;
72464;SDS011;60471;52.150;4.508;2023-04-01T16:56:03;13.30;;;7.32;;
72464;SDS011;60471;52.150;4.508;2023-04-01T17:02:07;14.52;;;6.95;;
72464;SDS011;60471;52.150;4.508;2023-04-01T17:18:47;13.88;;;7.35;;
72464;SDS011;60471;52.150;4.508;2023-04-01T17:30:04;11.77;;;6.22;;
72464;SDS011;60471;52.150;4.508;2023-04-01T17:35:27;14.23;;;8.63;;
72464;SDS011;60471;52.150;4.508;2023-04-01T17:38:11;12.65;;;6.75;;
72464;SDS011;60471;52.150;4.508;2023-04-01T17:52:29;11.57;;;6.07;;
72464;SDS011;60471;52.150;4.508;2023-04-01T18:04:36;14.52;;;6.07;;
72464;SDS011;60471;52.150;4.508;2023-04-01T18:13:57;12.15;;;5.55;;
72464;SDS011;60471;52.150;4.508;2023-04-01T18:20:03;15.93;;;6.05;;
72464;SDS011;60471;52.150;4.508;2023-04-01T18:22:52;10.00;;;5.68;;
72464;SDS011;60471;52.150;4.508;2023-04-01T18:25:36;11.02;;;5.57;;
72464;SDS011;60471;52.150;4.508;2023-04-01T18:28:14;11.40;;;5.13;;
72464;SDS011;60471;52.150;4.508;2023-04-01T18:31:11;9.98;;;5.10;;
72464;SDS011;60471;52.150;4.508;2023-04-01T18:33:46;10.52;;;4.75;;
72464;SDS011;60471;52.150;4.508;2023-04-01T18:36:39;11.00;;;5.60;;
72464;SDS011;60471;52.150;4.508;2023-04-01T18:39:16;8.80;;;4.57;;
72464;SDS011;60471;52.150;4.508;2023-04-01T18:41:53;10.93;;;5.00;;
72464;SDS011;60471;52.150;4.508;2023-04-01T18:50:56;11.07;;;5.70;;
72464;SDS011;60471;52.150;4.508;2023-04-01T18:53:28;12.45;;;6.50;;
72464;SDS011;60471;52.150;4.508;2023-04-01T18:56:30;10.70;;;5.43;;
72464;SDS011;60471;52.150;4.508;2023-04-01T18:59:06;10.60;;;5.95;;
72464;SDS011;60471;52.150;4.508;2023-04-01T19:02:13;10.70;;;5.65;;
72464;SDS011;60471;52.150;4.508;2023-04-01T19:07:40;11.73;;;5.82;;
72464;SDS011;60471;52.150;4.508;2023-04-01T19:19:16;13.07;;;6.65;;
72464;SDS011;60471;52.150;4.508;2023-04-01T19:21:57;15.02;;;6.38;;
72464;SDS011;60471;52.150;4.508;2023-04-01T19:25:01;11.75;;;5.95;;
72464;SDS011;60471;52.150;4.508;2023-04-01T19:27:50;11.35;;;6.40;;
72464;SDS011;60471;52.150;4.508;2023-04-01T19:30:27;12.80;;;7.18;;
72464;SDS011;60471;52.150;4.508;2023-04-01T19:36:06;14.05;;;8.02;;
72464;SDS011;60471;52.150;4.508;2023-04-01T19:39:34;14.38;;;7.95;;
72464;SDS011;60471;52.150;4.508;2023-04-01T19:42:04;12.32;;;7.70;;
72464;SDS011;60471;52.150;4.508;2023-04-01T19:44:57;16.67;;;7.55;;
72464;SDS011;60471;52.150;4.508;2023-04-01T19:51:15;16.00;;;8.45;;
72464;SDS011;60471;52.150;4.508;2023-04-01T19:54:11;16.33;;;8.05;;
72464;SDS011;60471;52.150;4.508;2023-04-01T19:56:45;13.85;;;8.60;;
72464;SDS011;60471;52.150;4.508;2023-04-01T19:59:38;15.32;;;8.43;;
72464;SDS011;60471;52.150;4.508;2023-04-01T20:05:25;15.30;;;8.30;;
72464;SDS011;60471;52.150;4.508;2023-04-01T20:11:12;19.02;;;8.88;;
72464;SDS011;60471;52.150;4.508;2023-04-01T20:17:26;16.98;;;9.23;;
72464;SDS011;60471;52.150;4.508;2023-04-01T20:33:51;16.70;;;8.52;;
72464;SDS011;60471;52.150;4.508;2023-04-01T20:42:49;13.43;;;7.63;;
72464;SDS011;60471;52.150;4.508;2023-04-01T20:49:46;17.52;;;9.25;;
72464;SDS011;60471;52.150;4.508;2023-04-01T20:52:31;18.20;;;11.02;;
72464;SDS011;60471;52.150;4.508;2023-04-01T21:17:13;18.75;;;10.48;;
72464;SDS011;60471;52.150;4.508;2023-04-01T21:23:16;22.23;;;11.73;;
72464;SDS011;60471;52.150;4.508;2023-04-01T21:29:06;22.30;;;11.32;;
72464;SDS011;60471;52.150;4.508;2023-04-01T21:34:56;19.70;;;10.95;;
72464;SDS011;60471;52.150;4.508;2023-04-01T21:51:53;13.85;;;7.15;;
72464;SDS011;60471;52.150;4.508;2023-04-01T21:55:01;13.43;;;7.05;;
72464;SDS011;60471;52.150;4.508;2023-04-01T21:58:18;16.10;;;8.13;;
72464;SDS011;60471;52.150;4.508;2023-04-01T22:04:42;14.35;;;8.30;;
72464;SDS011;60471;52.150;4.508;2023-04-01T22:08:00;17.17;;;10.30;;
72464;SDS011;60471;52.150;4.508;2023-04-01T22:13:59;18.27;;;9.20;;
72464;SDS011;60471;52.150;4.508;2023-04-01T22:16:37;18.80;;;9.40;;
72464;SDS011;60471;52.150;4.508;2023-04-01T22:19:27;16.55;;;8.77;;
72464;SDS011;60471;52.150;4.508;2023-04-01T22:22:08;14.80;;;7.60;;
72464;SDS011;60471;52.150;4.508;2023-04-01T22:27:51;17.30;;;8.27;;
72464;SDS011;60471;52.150;4.508;2023-04-01T22:30:24;12.52;;;7.82;;
72464;SDS011;60471;52.150;4.508;2023-04-01T22:39:09;18.38;;;10.38;;
72464;SDS011;60471;52.150;4.508;2023-04-01T22:44:42;20.48;;;12.55;;
72464;SDS011;60471;52.150;4.508;2023-04-01T22:50:21;20.27;;;12.60;;
72464;SDS011;60471;52.150;4.508;2023-04-01T22:53:01;22.50;;;12.13;;
72464;SDS011;60471;52.150;4.508;2023-04-01T22:55:45;22.85;;;12.70;;
72464;SDS011;60471;52.150;4.508;2023-04-01T22:58:17;21.23;;;11.63;;
72464;SDS011;60471;52.150;4.508;2023-04-01T23:00:56;20.48;;;12.02;;
72464;SDS011;60471;52.150;4.508;2023-04-01T23:03:32;20.75;;;11.48;;
72464;SDS011;60471;52.150;4.508;2023-04-01T23:06:06;22.77;;;12.48;;
72464;SDS011;60471;52.150;4.508;2023-04-01T23:09:11;22.48;;;13.75;;
72464;SDS011;60471;52.150;4.508;2023-04-01T23:14:41;20.00;;;12.55;;
72464;SDS011;60471;52.150;4.508;2023-04-01T23:17:25;25.67;;;12.70;;
72464;SDS011;60471;52.150;4.508;2023-04-01T23:20:17;25.40;;;12.23;;
72464;SDS011;60471;52.150;4.508;2023-04-01T23:26:12;24.30;;;12.38;;
72464;SDS011;60471;52.150;4.508;2023-04-01T23:28:48;24.15;;;11.57;;
72464;SDS011;60471;52.150;4.508;2023-04-01T23:31:28;20.58;;;12.70;;
72464;SDS011;60471;52.150;4.508;2023-04-01T23:36:48;23.48;;;11.35;;
72464;SDS011;60471;52.150;4.508;2023-04-01T23:39:48;23.73;;;10.80;;
72464;SDS011;60471;52.150;4.508;2023-04-01T23:42:22;23.70;;;12.05;;
72464;SDS011;60471;52.150;4.508;2023-04-01T23:45:13;22.60;;;12.25;;
72464;SDS011;60471;52.150;4.508;2023-04-01T23:47:45;20.25;;;11.68;;
72464;SDS011;60471;52.150;4.508;2023-04-01T23:50:16;23.90;;;11.68;;
72464;SDS011;60471;52.150;4.508;2023-04-01T23:52:48;26.30;;;11.98;;
72464;SDS011;60471;52.150;4.508;2023-04-01T23:55:25;23.65;;;11.88;;
